Time;durP1;ratioP1;P1;durP2;ratioP2;P2;SDS_P1;SDS_P2;PMS_P1;PMS_P2;Temp;Humidity;BMP_temperature;BMP_pressure;BME280_temperature;BME280_humidity;BME280_pressure;Samples;Min_cycle;Max_cycle;Signal;HPM_P1;HPM_P2
2021/03/12 00:00:59;;;;;;;4.18;2.70;;;7.60;1.00;;;;;;4909086;28;21046;-75
2021/03/12 00:03:30;;;;;;;4.18;2.60;;;7.60;1.00;;;;;;4896981;28;20244;-76
2021/03/12 00:05:58;;;;;;;4.30;2.90;;;7.60;1.00;;;;;;4909427;28;20256;-77
2021/03/12 00:08:28;;;;;;;4.30;2.80;;;7.50;1.00;;;;;;4899732;28;20274;-76
2021/03/12 00:10:55;;;;;;;4.68;2.75;;;7.50;1.00;;;;;;4918062;28;20226;-73
2021/03/12 00:13:21;;;;;;;4.60;3.10;;;7.50;1.00;;;;;;4921526;28;20392;-75
2021/03/12 00:15:48;;;;;;;4.28;2.95;;;7.50;1.00;;;;;;4905480;28;20229;-76
2021/03/12 00:18:15;;;;;;;7.28;2.72;;;7.60;1.00;;;;;;4914545;28;20240;-76
2021/03/12 00:20:41;;;;;;;4.57;3.08;;;7.60;1.00;;;;;;4900984;28;20226;-75
2021/03/12 00:23:08;;;;;;;4.72;3.05;;;7.70;1.00;;;;;;4908528;28;20310;-75
2021/03/12 00:25:39;;;;;;;3.60;2.80;;;7.70;1.00;;;;;;4903400;28;20226;-77
2021/03/12 00:28:06;;;;;;;7.82;3.08;;;7.70;1.00;;;;;;4911040;28;20366;-75
2021/03/12 00:30:33;;;;;;;8.38;3.20;;;7.70;1.00;;;;;;4900292;28;20805;-77
2021/03/12 00:33:00;;;;;;;4.85;2.95;;;7.70;1.00;;;;;;4906481;29;20252;-75
2021/03/12 00:35:26;;;;;;;5.68;3.72;;;7.60;1.00;;;;;;4896770;28;20240;-77
2021/03/12 00:37:53;;;;;;;2.60;2.40;;;7.60;1.00;;;;;;4914597;29;20222;-77
2021/03/12 00:40:23;;;;;;;3.40;2.70;;;7.60;1.00;;;;;;4899556;28;20720;-78
2021/03/12 00:42:50;;;;;;;4.60;2.95;;;7.50;1.00;;;;;;4913706;29;20229;-76
2021/03/12 00:45:18;;;;;;;7.63;3.30;;;7.50;1.00;;;;;;4900174;28;20240;-77
2021/03/12 00:47:45;;;;;;;3.78;2.50;;;7.50;1.00;;;;;;4912877;29;20332;-77
2021/03/12 00:50:14;;;;;;;3.85;2.55;;;7.60;1.00;;;;;;4900196;28;20725;-77
2021/03/12 00:52:41;;;;;;;4.45;2.95;;;7.60;1.00;;;;;;4917112;28;20238;-77
2021/03/12 00:55:08;;;;;;;4.63;2.90;;;7.70;1.00;;;;;;4904437;28;20316;-76
2021/03/12 00:57:35;;;;;;;7.10;2.88;;;7.70;1.00;;;;;;4913642;28;20271;-77
2021/03/12 01:00:03;;;;;;;6.43;3.10;;;7.70;1.00;;;;;;4916992;29;20221;-78
2021/03/12 01:02:29;;;;;;;6.28;3.00;;;7.70;1.00;;;;;;4912709;28;20215;-78
2021/03/12 01:04:55;;;;;;;3.40;3.00;;;7.70;1.00;;;;;;4912643;28;20252;-78
2021/03/12 01:07:21;;;;;;;8.13;3.00;;;7.60;1.00;;;;;;4890042;28;20298;-78
2021/03/12 01:09:48;;;;;;;6.90;3.20;;;7.60;1.00;;;;;;4908969;28;20233;-78
2021/03/12 01:12:15;;;;;;;4.05;2.80;;;7.60;1.00;;;;;;4900711;28;20275;-77
2021/03/12 01:14:42;;;;;;;6.55;2.70;;;7.60;1.00;;;;;;4896535;29;20264;-77
2021/03/12 01:17:09;;;;;;;5.30;3.03;;;7.60;1.00;;;;;;4902974;28;20277;-78
2021/03/12 01:19:35;;;;;;;6.35;4.05;;;7.60;1.00;;;;;;4917957;29;20237;-78
2021/03/12 01:22:02;;;;;;;3.47;2.30;;;7.60;1.00;;;;;;4909317;28;21113;-78
2021/03/12 01:24:28;;;;;;;4.43;2.30;;;7.60;1.00;;;;;;4924151;29;20296;-77
2021/03/12 01:26:55;;;;;;;4.10;2.60;;;7.60;1.00;;;;;;4898869;28;20902;-78
2021/03/12 01:29:21;;;;;;;3.55;1.92;;;7.60;1.00;;;;;;4910411;29;20244;-78
2021/03/12 01:31:47;;;;;;;2.53;2.22;;;7.50;1.00;;;;;;4901940;28;20220;-78
2021/03/12 01:34:14;;;;;;;4.85;2.85;;;7.40;1.00;;;;;;4914427;28;20773;-78
2021/03/12 01:36:40;;;;;;;3.38;1.92;;;7.30;1.00;;;;;;4903166;28;20230;-78
2021/03/12 01:39:06;;;;;;;3.85;2.20;;;7.30;1.00;;;;;;4909082;28;20222;-77
2021/03/12 01:41:33;;;;;;;3.60;1.92;;;7.20;1.00;;;;;;4904043;28;20878;-77
2021/03/12 01:43:59;;;;;;;4.68;1.90;;;7.10;1.00;;;;;;4900539;28;20264;-77
2021/03/12 01:46:25;;;;;;;3.40;1.95;;;7.10;1.00;;;;;;4919029;29;20252;-77
2021/03/12 01:48:51;;;;;;;3.55;3.20;;;7.10;1.00;;;;;;4902580;28;20237;-77
2021/03/12 01:51:18;;;;;;;3.50;1.92;;;7.10;1.00;;;;;;4919815;29;20234;-77
2021/03/12 01:53:45;;;;;;;2.85;2.00;;;7.20;1.00;;;;;;4906170;28;20322;-78
2021/03/12 01:56:11;;;;;;;4.97;2.10;;;7.20;1.00;;;;;;4914182;28;20224;-78
2021/03/12 01:58:38;;;;;;;4.18;2.28;;;7.20;1.00;;;;;;4905268;28;20376;-78
2021/03/12 02:01:04;;;;;;;4.03;2.67;;;7.20;1.00;;;;;;4912433;28;20225;-78
2021/03/12 02:03:33;;;;;;;3.47;2.20;;;7.20;1.00;;;;;;4900193;28;20231;-78
2021/03/12 02:06:00;;;;;;;3.33;2.35;;;7.20;1.00;;;;;;4918607;28;20308;-78
2021/03/12 02:08:27;;;;;;;4.65;2.65;;;7.20;1.00;;;;;;4900907;28;20228;-78
2021/03/12 02:10:53;;;;;;;4.93;3.13;;;7.10;1.00;;;;;;4909599;29;20232;-78
2021/03/12 02:13:37;;;;;;;4.00;3.05;;;7.00;1.00;;;;;;4897418;28;20853;-78
2021/03/12 02:16:10;;;;;;;4.80;2.90;;;6.70;1.00;;;;;;4916178;29;21349;-78
2021/03/12 02:18:41;;;;;;;8.52;2.55;;;6.60;1.00;;;;;;4900478;28;20225;-78
2021/03/12 02:21:14;;;;;;;2.33;2.10;;;6.50;1.00;;;;;;4901201;29;20233;-77
2021/03/12 02:23:53;;;;;;;4.95;2.50;;;6.40;1.00;;;;;;4903016;28;20284;-78
2021/03/12 02:26:28;;;;;;;2.55;2.10;;;6.40;1.00;;;;;;4914963;29;20232;-78
2021/03/12 02:28:57;;;;;;;2.95;2.33;;;6.30;1.00;;;;;;4900458;28;20795;-77
2021/03/12 02:31:24;;;;;;;2.90;2.10;;;6.20;1.00;;;;;;4916194;28;20257;-77
2021/03/12 02:33:51;;;;;;;4.90;2.65;;;6.20;1.00;;;;;;4907317;28;20266;-77
2021/03/12 02:36:20;;;;;;;5.35;2.95;;;6.20;1.00;;;;;;4910093;28;21011;-77
2021/03/12 02:38:48;;;;;;;3.13;2.70;;;6.10;1.00;;;;;;4918017;29;20233;-79
2021/03/12 02:41:14;;;;;;;9.32;2.75;;;6.10;1.00;;;;;;4904950;28;20230;-76
2021/03/12 02:43:41;;;;;;;3.70;2.47;;;6.00;1.00;;;;;;4925470;29;20285;-77
2021/03/12 02:46:08;;;;;;;3.17;2.55;;;6.00;1.00;;;;;;4904621;28;20292;-78
2021/03/12 02:48:35;;;;;;;7.45;2.85;;;6.00;1.00;;;;;;4896300;29;20229;-77
2021/03/12 02:51:04;;;;;;;3.88;3.00;;;5.90;1.00;;;;;;4902768;28;20261;-78
2021/03/12 02:53:31;;;;;;;4.00;2.65;;;5.90;1.00;;;;;;4921682;28;20672;-79
2021/03/12 02:55:58;;;;;;;4.40;2.90;;;5.90;1.00;;;;;;4903866;28;20329;-77
2021/03/12 02:58:24;;;;;;;5.75;2.75;;;5.80;1.00;;;;;;4911920;28;20233;-77
2021/03/12 03:00:51;;;;;;;4.40;3.22;;;5.80;1.00;;;;;;4902787;28;20359;-78
2021/03/12 03:03:19;;;;;;;3.10;2.80;;;5.80;1.00;;;;;;4911038;29;20344;-78
2021/03/12 03:05:46;;;;;;;3.80;2.65;;;5.80;1.00;;;;;;4899083;28;20619;-78
2021/03/12 03:08:14;;;;;;;4.57;2.70;;;5.70;1.00;;;;;;4918816;29;20299;-77
2021/03/12 03:10:42;;;;;;;3.92;2.60;;;5.70;1.00;;;;;;4885811;29;20316;-77
2021/03/12 03:13:08;;;;;;;4.35;2.75;;;5.70;1.00;;;;;;4913783;29;20300;-78
2021/03/12 03:15:35;;;;;;;3.90;2.33;;;5.70;1.00;;;;;;4897916;28;20956;-77
2021/03/12 03:18:02;;;;;;;5.70;2.63;;;5.70;1.00;;;;;;4915414;29;20218;-77
2021/03/12 03:20:29;;;;;;;3.00;2.00;;;5.70;1.00;;;;;;4914290;29;20229;-78
2021/03/12 03:22:56;;;;;;;8.02;4.70;;;5.70;1.00;;;;;;4901285;28;23739;-77
2021/03/12 03:25:22;;;;;;;4.85;2.17;;;5.70;1.00;;;;;;4915593;29;20312;-78
2021/03/12 03:27:48;;;;;;;2.40;1.42;;;5.70;1.00;;;;;;4900155;28;20325;-77
2021/03/12 03:30:16;;;;;;;2.10;1.48;;;5.60;1.00;;;;;;4918132;29;20229;-78
2021/03/12 03:32:42;;;;;;;3.17;1.80;;;5.60;1.00;;;;;;4904890;28;20229;-77
2021/03/12 03:35:12;;;;;;;2.65;1.70;;;5.70;1.00;;;;;;4921458;28;20237;-77
2021/03/12 03:37:41;;;;;;;1.75;1.20;;;5.70;1.00;;;;;;4905851;28;20297;-79
2021/03/12 03:40:10;;;;;;;2.80;1.65;;;5.70;1.00;;;;;;4912872;28;20225;-78
2021/03/12 03:42:39;;;;;;;4.82;2.00;;;5.70;1.00;;;;;;4887098;29;20225;-78
2021/03/12 03:45:08;;;;;;;3.72;1.75;;;5.70;1.00;;;;;;4914087;28;20230;-79
2021/03/12 03:47:35;;;;;;;1.73;1.45;;;5.70;1.00;;;;;;4898522;28;20746;-78
2021/03/12 03:50:03;;;;;;;2.88;1.70;;;5.70;1.00;;;;;;4918145;29;20230;-78
2021/03/12 03:52:30;;;;;;;3.35;1.55;;;5.70;1.00;;;;;;4900947;28;20234;-78
2021/03/12 03:54:58;;;;;;;2.55;2.00;;;5.70;1.00;;;;;;4913095;29;20242;-78
2021/03/12 03:57:25;;;;;;;4.18;1.45;;;5.80;1.00;;;;;;4900619;28;20222;-78
2021/03/12 03:59:52;;;;;;;2.78;1.50;;;5.80;1.00;;;;;;4918389;29;20249;-78
2021/03/12 04:02:19;;;;;;;3.67;1.70;;;5.80;1.00;;;;;;4926429;28;20286;-77
2021/03/12 04:04:48;;;;;;;4.28;1.10;;;5.80;1.00;;;;;;4930394;29;20624;-78
2021/03/12 04:07:16;;;;;;;4.80;1.60;;;5.80;1.00;;;;;;4926502;29;20309;-78
2021/03/12 04:09:43;;;;;;;2.83;1.55;;;5.80;1.00;;;;;;4917227;28;20236;-77
2021/03/12 04:12:13;;;;;;;3.35;1.52;;;5.80;1.00;;;;;;4931240;29;20262;-77
2021/03/12 04:14:41;;;;;;;2.70;1.15;;;5.80;1.00;;;;;;4918708;28;20257;-77
2021/03/12 04:17:08;;;;;;;2.90;1.40;;;5.80;1.00;;;;;;4932227;29;20249;-79
2021/03/12 04:19:35;;;;;;;2.58;1.35;;;5.80;1.00;;;;;;4925490;28;20313;-77
2021/03/12 04:22:02;;;;;;;4.78;1.60;;;5.80;1.00;;;;;;4908911;29;20241;-77
2021/03/12 04:24:29;;;;;;;1.80;1.60;;;5.80;1.00;;;;;;4901581;28;20261;-78
2021/03/12 04:26:55;;;;;;;3.17;1.35;;;5.90;1.00;;;;;;4927414;29;20229;-76
2021/03/12 04:29:23;;;;;;;3.72;2.10;;;5.80;1.00;;;;;;4920148;28;21010;-77
2021/03/12 04:31:49;;;;;;;4.20;1.50;;;5.80;1.00;;;;;;4927853;28;20227;-77
2021/03/12 04:34:15;;;;;;;2.90;1.58;;;5.80;1.00;;;;;;4913270;28;20237;-77
2021/03/12 04:36:43;;;;;;;1.70;1.27;;;5.80;1.00;;;;;;4928009;28;20886;-79
2021/03/12 04:39:10;;;;;;;8.80;5.45;;;5.80;1.00;;;;;;4915713;28;20236;-76
2021/03/12 04:41:37;;;;;;;5.05;2.00;;;5.80;1.00;;;;;;4920241;29;20234;-75
2021/03/12 04:44:05;;;;;;;6.13;1.90;;;5.80;1.00;;;;;;4920295;28;20233;-76
2021/03/12 04:46:34;;;;;;;6.43;1.90;;;5.80;1.00;;;;;;4935470;29;20226;-78
2021/03/12 04:49:02;;;;;;;2.88;2.00;;;5.80;1.00;;;;;;4906114;29;20230;-77
2021/03/12 04:51:28;;;;;;;3.92;1.90;;;5.90;1.00;;;;;;4911581;28;20230;-78
2021/03/12 04:53:55;;;;;;;7.78;1.88;;;5.90;1.00;;;;;;4923433;28;20293;-74
2021/03/12 04:56:22;;;;;;;5.38;1.80;;;5.90;1.00;;;;;;4887890;29;20226;-75
2021/03/12 04:58:49;;;;;;;3.72;1.67;;;5.90;1.00;;;;;;4922871;29;20320;-74
2021/03/12 05:01:15;;;;;;;3.50;1.83;;;5.90;1.00;;;;;;4903448;28;20233;-73
2021/03/12 05:03:42;;;;;;;4.35;2.20;;;5.90;1.00;;;;;;4917922;29;20419;-76
2021/03/12 05:06:10;;;;;;;2.75;2.08;;;6.00;1.00;;;;;;4901698;28;20225;-74
2021/03/12 05:08:38;;;;;;;2.80;1.75;;;6.00;1.00;;;;;;4915518;29;20229;-77
2021/03/12 05:11:06;;;;;;;3.50;2.05;;;6.00;1.00;;;;;;4903492;28;20229;-75
2021/03/12 05:13:32;;;;;;;5.60;2.70;;;6.00;1.00;;;;;;4913632;29;20325;-75
2021/03/12 05:15:58;;;;;;;4.25;2.28;;;5.90;1.00;;;;;;4910766;28;20290;-75
2021/03/12 05:18:25;;;;;;;2.40;1.90;;;5.90;1.00;;;;;;4914999;28;20210;-77
2021/03/12 05:20:52;;;;;;;6.13;2.58;;;6.00;1.00;;;;;;4905498;28;20718;-76
2021/03/12 05:23:21;;;;;;;3.45;2.40;;;6.00;1.00;;;;;;4911349;28;20596;-75
2021/03/12 05:25:48;;;;;;;5.40;2.92;;;6.00;1.00;;;;;;4902230;28;21085;-77
2021/03/12 05:28:15;;;;;;;3.50;2.60;;;5.90;1.00;;;;;;4890978;28;20829;-76
2021/03/12 05:30:41;;;;;;;4.15;3.47;;;5.90;1.00;;;;;;4907232;28;20218;-74
2021/03/12 05:33:08;;;;;;;5.40;3.25;;;5.90;1.00;;;;;;4910513;28;20238;-75
2021/03/12 05:35:34;;;;;;;4.50;3.42;;;5.90;1.00;;;;;;4916769;28;20228;-77
2021/03/12 05:38:02;;;;;;;4.03;3.00;;;5.70;1.00;;;;;;4906509;28;20240;-76
2021/03/12 05:40:28;;;;;;;4.55;3.20;;;5.60;1.00;;;;;;4915874;28;20233;-76
2021/03/12 05:42:55;;;;;;;5.15;3.17;;;5.60;1.00;;;;;;4905073;28;20222;-74
2021/03/12 05:45:22;;;;;;;6.30;4.05;;;5.50;1.00;;;;;;4914822;28;20253;-74
2021/03/12 05:47:49;;;;;;;9.85;4.13;;;5.50;1.00;;;;;;4905943;28;21052;-75
2021/03/12 05:50:15;;;;;;;6.38;4.25;;;5.40;1.00;;;;;;4913854;28;20805;-75
2021/03/12 05:52:44;;;;;;;9.00;5.60;;;5.40;1.00;;;;;;4902218;28;20606;-75
2021/03/12 05:55:12;;;;;;;6.65;4.97;;;5.30;1.00;;;;;;4912011;29;20677;-74
2021/03/12 05:57:38;;;;;;;9.57;6.78;;;5.30;1.00;;;;;;4901702;28;20218;-75
2021/03/12 06:00:05;;;;;;;5.50;3.80;;;5.30;1.00;;;;;;4913321;29;20226;-76
2021/03/12 06:02:32;;;;;;;7.10;4.47;;;5.30;1.00;;;;;;4915648;28;20222;-75
2021/03/12 06:04:58;;;;;;;5.30;3.97;;;5.30;1.00;;;;;;4932586;29;20721;-77
2021/03/12 06:07:24;;;;;;;5.55;4.07;;;5.30;1.00;;;;;;4914601;28;23289;-75
2021/03/12 06:09:51;;;;;;;12.43;4.45;;;5.30;1.00;;;;;;4905119;29;21048;-73
2021/03/12 06:12:19;;;;;;;5.20;3.80;;;5.30;1.00;;;;;;4908045;28;20261;-74
2021/03/12 06:14:51;;;;;;;7.15;4.43;;;5.20;1.00;;;;;;4926680;28;20292;-74
2021/03/12 06:17:34;;;;;;;5.50;4.50;;;5.20;1.00;;;;;;4925634;29;20225;-76
2021/03/12 06:20:01;;;;;;;7.47;4.22;;;5.20;1.00;;;;;;4925313;28;20229;-75
2021/03/12 06:22:27;;;;;;;7.07;4.80;;;5.20;1.00;;;;;;4928027;29;20777;-77
2021/03/12 06:24:53;;;;;;;6.50;3.90;;;5.20;1.00;;;;;;4915034;28;20763;-75
2021/03/12 06:27:28;;;;;;;5.50;3.38;;;5.30;1.00;;;;;;4909364;29;20238;-77
2021/03/12 06:29:58;;;;;;;4.90;4.00;;;5.30;1.00;;;;;;4910634;28;20288;-77
2021/03/12 06:32:37;;;;;;;6.63;4.03;;;5.30;1.00;;;;;;4924308;29;20228;-75
2021/03/12 06:35:05;;;;;;;4.90;4.10;;;5.30;1.00;;;;;;4913173;28;20240;-77
2021/03/12 06:37:32;;;;;;;7.72;5.05;;;5.30;1.00;;;;;;4934339;28;20450;-75
2021/03/12 06:39:59;;;;;;;6.07;4.70;;;5.40;1.00;;;;;;4904649;28;20230;-75
2021/03/12 06:42:27;;;;;;;10.88;5.25;;;5.40;1.00;;;;;;4909825;29;20234;-76
2021/03/12 06:44:53;;;;;;;4.95;4.45;;;5.50;1.00;;;;;;4907101;28;21096;-75
2021/03/12 06:47:26;;;;;;;5.88;4.80;;;5.60;1.00;;;;;;4913278;28;20240;-75
2021/03/12 06:49:55;;;;;;;5.72;4.55;;;5.60;1.00;;;;;;4903003;28;20237;-78
2021/03/12 06:52:31;;;;;;;7.57;6.38;;;5.50;1.00;;;;;;4913084;28;20233;-75
2021/03/12 06:54:58;;;;;;;7.13;5.65;;;5.40;1.00;;;;;;4899237;28;20229;-73
2021/03/12 06:57:24;;;;;;;7.30;5.47;;;5.40;1.00;;;;;;4922659;28;20903;-75
2021/03/12 06:59:59;;;;;;;6.05;5.45;;;5.40;1.00;;;;;;4904087;28;21173;-74
2021/03/12 07:02:32;;;;;;;6.60;5.90;;;5.30;1.00;;;;;;4912822;29;20221;-76
2021/03/12 07:04:59;;;;;;;6.68;5.97;;;5.30;1.00;;;;;;4884297;29;20233;-75
2021/03/12 07:07:36;;;;;;;8.13;6.45;;;5.30;1.00;;;;;;4904808;29;20497;-76
2021/03/12 07:10:04;;;;;;;9.02;6.10;;;5.30;1.00;;;;;;4899935;28;20233;-77
2021/03/12 07:12:45;;;;;;;6.38;5.43;;;5.40;1.00;;;;;;4912271;28;20248;-78
2021/03/12 07:15:13;;;;;;;8.82;5.60;;;5.50;1.00;;;;;;4901222;28;20717;-75
2021/03/12 07:17:39;;;;;;;8.13;6.43;;;5.50;1.00;;;;;;4911724;29;21020;-76
2021/03/12 07:20:07;;;;;;;11.60;7.10;;;5.60;1.00;;;;;;4903949;28;20527;-77
2021/03/12 07:22:36;;;;;;;7.90;6.78;;;5.60;1.00;;;;;;4919047;29;20300;-78
2021/03/12 07:25:07;;;;;;;7.47;6.43;;;5.60;1.00;;;;;;4912089;28;20230;-79
2021/03/12 07:27:36;;;;;;;9.80;6.63;;;5.60;1.00;;;;;;4893301;29;20752;-78
2021/03/12 07:30:08;;;;;;;7.60;5.65;;;5.70;1.00;;;;;;4916208;29;20805;-79
2021/03/12 07:32:37;;;;;;;9.35;6.40;;;5.70;1.00;;;;;;4902246;28;20286;-78
2021/03/12 07:35:06;;;;;;;6.90;5.65;;;5.80;1.00;;;;;;4912718;29;20229;-78
2021/03/12 07:37:35;;;;;;;10.07;6.03;;;5.80;1.00;;;;;;4899625;28;20228;-77
2021/03/12 07:40:03;;;;;;;8.65;6.18;;;5.80;1.00;;;;;;4915791;29;20229;-77
2021/03/12 07:42:30;;;;;;;6.95;5.82;;;5.80;1.00;;;;;;4900976;28;20298;-77
2021/03/12 07:44:57;;;;;;;8.35;6.18;;;5.90;1.00;;;;;;4911746;28;20960;-75
2021/03/12 07:47:26;;;;;;;7.70;6.38;;;6.10;1.00;;;;;;4906914;28;20234;-78
2021/03/12 07:49:53;;;;;;;6.93;5.90;;;6.30;1.00;;;;;;4912350;28;20219;-77
2021/03/12 07:52:48;;;;;;;8.93;6.35;;;6.40;1.00;;;;;;4907130;28;20229;-77
2021/03/12 07:55:37;;;;;;;8.85;6.50;;;6.40;1.00;;;;;;4891744;29;20620;-79
2021/03/12 07:58:04;;;;;;;7.65;6.30;;;6.50;1.00;;;;;;4903441;28;20237;-78
2021/03/12 08:00:31;;;;;;;6.00;4.80;;;6.50;1.00;;;;;;4913209;28;20285;-76
2021/03/12 08:02:59;;;;;;;8.85;5.88;;;6.40;1.00;;;;;;4905427;28;20293;-76
2021/03/12 08:05:40;;;;;;;8.20;5.47;;;6.40;1.00;;;;;;4918274;29;20225;-80
2021/03/12 08:08:32;;;;;;;10.85;5.85;;;6.40;1.00;;;;;;4920822;28;20251;-80
2021/03/12 08:11:18;;;;;;;6.00;4.30;;;6.40;1.00;;;;;;4907595;29;20241;-81
2021/03/12 08:13:45;;;;;;;8.18;6.07;;;6.30;1.00;;;;;;4903476;29;20244;-81
2021/03/12 08:16:11;;;;;;;7.05;4.97;;;6.30;1.00;;;;;;4933817;29;20229;-82
2021/03/12 08:18:41;;;;;;;8.05;5.03;;;6.30;1.00;;;;;;4920879;28;20270;-80
2021/03/12 08:21:37;;;;;;;9.70;5.38;;;6.40;1.00;;;;;;4932957;29;20233;-80
2021/03/12 08:24:24;;;;;;;6.43;5.38;;;6.40;1.00;;;;;;4903797;28;20729;-79
2021/03/12 08:26:51;;;;;;;7.38;5.25;;;6.50;1.00;;;;;;4918239;28;20262;-81
2021/03/12 08:29:38;;;;;;;5.18;4.60;;;6.60;1.00;;;;;;4907993;29;21336;-79
2021/03/12 08:32:51;;;;;;;6.97;5.45;;;6.70;1.00;;;;;;4911015;29;20232;-79
2021/03/12 08:35:39;;;;;;;5.70;4.68;;;6.90;1.00;;;;;;4921301;29;20241;-78
2021/03/12 08:38:22;;;;;;;6.68;5.18;;;6.90;1.00;;;;;;4921869;28;20233;-78
2021/03/12 08:40:58;;;;;;;5.95;5.40;;;7.00;1.00;;;;;;4943642;29;20334;-81
2021/03/12 08:43:25;;;;;;;5.38;4.85;;;7.10;1.00;;;;;;4934502;28;27777;-79
2021/03/12 08:45:53;;;;;;;9.10;4.95;;;7.10;1.00;;;;;;4940081;29;20233;-79
2021/03/12 08:48:20;;;;;;;7.60;5.40;;;7.10;1.00;;;;;;4938575;28;20229;-83
2021/03/12 08:50:55;;;;;;;6.10;5.10;;;7.10;1.00;;;;;;4935769;28;20325;-81
2021/03/12 08:53:23;;;;;;;5.45;4.95;;;7.10;1.00;;;;;;4930093;28;20236;-81
2021/03/12 08:55:51;;;;;;;8.95;5.68;;;7.20;1.00;;;;;;4922566;28;20245;-81
2021/03/12 08:58:18;;;;;;;7.55;5.65;;;7.20;1.00;;;;;;4913628;29;20233;-77
2021/03/12 09:00:46;;;;;;;11.02;5.07;;;7.20;1.00;;;;;;4905087;28;20237;-76
2021/03/12 09:03:18;;;;;;;6.80;4.25;;;7.20;1.00;;;;;;4921647;28;20237;-79
2021/03/12 09:05:46;;;;;;;5.40;4.90;;;7.20;1.00;;;;;;4899315;29;20242;-78
2021/03/12 09:08:14;;;;;;;8.65;5.25;;;7.20;1.00;;;;;;4923320;29;21418;-76
2021/03/12 09:10:41;;;;;;;6.15;4.75;;;7.20;1.00;;;;;;4903867;28;20239;-77
2021/03/12 09:13:19;;;;;;;5.28;4.15;;;7.20;1.00;;;;;;4918389;28;20265;-79
2021/03/12 09:15:46;;;;;;;6.57;5.00;;;7.30;1.00;;;;;;4888541;29;21402;-77
2021/03/12 09:18:15;;;;;;;5.85;4.90;;;7.30;1.00;;;;;;4916438;28;20237;-77
2021/03/12 09:20:42;;;;;;;6.30;5.15;;;7.30;1.00;;;;;;4901263;28;20226;-76
2021/03/12 09:23:09;;;;;;;5.90;4.93;;;7.30;1.00;;;;;;4925170;28;20708;-77
2021/03/12 09:25:36;;;;;;;7.00;6.20;;;7.40;1.00;;;;;;4892747;28;20510;-77
2021/03/12 09:28:06;;;;;;;5.53;4.53;;;7.50;1.00;;;;;;4911667;28;20241;-77
2021/03/12 09:30:36;;;;;;;5.50;4.90;;;7.60;1.00;;;;;;4883457;29;20238;-79
2021/03/12 09:33:03;;;;;;;6.25;4.30;;;7.80;1.00;;;;;;4917522;29;20240;-78
2021/03/12 09:35:29;;;;;;;5.55;4.90;;;8.10;1.00;;;;;;4909861;28;20734;-78
2021/03/12 09:37:57;;;;;;;7.80;4.82;;;8.80;1.00;;;;;;4920318;29;20229;-78
2021/03/12 09:40:39;;;;;;;5.03;4.63;;;9.30;1.00;;;;;;4907041;28;20226;-78
2021/03/12 09:43:07;;;;;;;7.47;4.40;;;10.30;1.00;;;;;;4919278;29;20233;-77
2021/03/12 09:45:36;;;;;;;5.88;4.93;;;11.00;1.00;;;;;;4908866;28;20237;-76
2021/03/12 09:48:04;;;;;;;8.53;5.10;;;11.40;1.00;;;;;;4923698;28;20227;-76
2021/03/12 09:50:35;;;;;;;6.45;4.82;;;11.30;1.00;;;;;;4924567;29;20461;-78
2021/03/12 09:53:05;;;;;;;6.53;4.55;;;10.80;1.00;;;;;;4907740;28;20293;-79
2021/03/12 09:55:34;;;;;;;6.60;4.38;;;10.30;1.00;;;;;;4922096;29;20226;-78
2021/03/12 09:58:04;;;;;;;5.50;4.40;;;9.90;1.00;;;;;;4894406;29;20222;-79
2021/03/12 10:00:30;;;;;;;9.60;4.80;;;9.70;1.00;;;;;;4926300;28;20307;-78
2021/03/12 10:02:58;;;;;;;7.25;4.22;;;10.70;1.00;;;;;;4905522;29;20298;-78
2021/03/12 10:05:25;;;;;;;5.38;3.72;;;11.60;1.00;;;;;;4934578;28;20738;-77
2021/03/12 10:07:52;;;;;;;4.85;3.65;;;11.30;1.00;;;;;;4903774;29;20749;-77
2021/03/12 10:10:25;;;;;;;5.10;4.00;;;10.80;1.00;;;;;;4925939;28;20221;-78
2021/03/12 10:12:53;;;;;;;6.67;4.03;;;10.70;1.00;;;;;;4915276;28;20222;-78
2021/03/12 10:15:23;;;;;;;5.40;4.07;;;10.80;1.00;;;;;;4921924;28;20422;-78
2021/03/12 10:17:50;;;;;;;9.13;3.88;;;11.40;1.00;;;;;;4908281;29;20223;-80
2021/03/12 10:20:24;;;;;;;5.32;4.03;;;11.40;1.00;;;;;;4930971;28;20243;-79
2021/03/12 10:22:56;;;;;;;4.15;3.40;;;10.80;1.00;;;;;;4907013;28;20284;-79
2021/03/12 10:25:25;;;;;;;5.20;4.18;;;10.30;1.00;;;;;;4924189;29;20222;-78
2021/03/12 10:27:53;;;;;;;6.75;4.00;;;10.10;1.00;;;;;;4886776;28;20230;-79
2021/03/12 10:30:23;;;;;;;7.57;4.43;;;9.90;1.00;;;;;;4923171;29;20214;-80
2021/03/12 10:32:51;;;;;;;4.85;4.00;;;9.70;1.00;;;;;;4896677;29;20324;-79
2021/03/12 10:35:23;;;;;;;4.60;3.47;;;9.60;1.00;;;;;;4921664;28;20362;-80
2021/03/12 10:37:51;;;;;;;5.00;3.58;;;9.50;1.00;;;;;;4914866;28;21232;-80
2021/03/12 10:40:18;;;;;;;8.55;3.33;;;9.50;1.00;;;;;;4924377;28;20260;-80
2021/03/12 10:42:44;;;;;;;6.60;3.78;;;9.60;1.00;;;;;;4907271;28;20234;-80
2021/03/12 10:45:19;;;;;;;6.68;3.67;;;9.50;1.00;;;;;;4910589;28;20293;-79
2021/03/12 10:48:04;;;;;;;5.43;3.95;;;9.50;1.00;;;;;;4902977;29;20229;-78
2021/03/12 10:50:33;;;;;;;8.00;3.92;;;9.40;1.00;;;;;;4901096;29;20332;-79
2021/03/12 10:53:07;;;;;;;9.75;4.78;;;9.40;1.00;;;;;;4903481;29;20269;-80
2021/03/12 10:55:35;;;;;;;4.50;2.63;;;10.50;1.00;;;;;;4912378;28;20718;-78
2021/03/12 10:58:01;;;;;;;6.30;3.67;;;12.70;1.00;;;;;;4920368;29;20454;-79
2021/03/12 11:00:29;;;;;;;5.50;2.80;;;13.00;1.00;;;;;;4907637;28;20554;-79
2021/03/12 11:03:02;;;;;;;5.07;3.00;;;12.40;1.00;;;;;;4919863;28;20454;-79
2021/03/12 11:05:30;;;;;;;2.67;2.30;;;12.00;1.00;;;;;;4923264;28;20441;-80
2021/03/12 11:07:56;;;;;;;5.80;3.03;;;11.40;1.00;;;;;;4919201;28;20798;-79
2021/03/12 11:10:23;;;;;;;6.03;3.20;;;11.60;1.00;;;;;;4891779;29;20466;-79
2021/03/12 11:12:53;;;;;;;5.80;3.42;;;12.10;1.00;;;;;;4921363;28;20463;-79
2021/03/12 11:15:21;;;;;;;9.57;4.17;;;12.10;1.00;;;;;;4888075;29;20229;-80
2021/03/12 11:17:48;;;;;;;6.03;4.00;;;12.30;1.00;;;;;;4918247;28;20456;-78
2021/03/12 11:20:20;;;;;;;5.30;3.03;;;13.00;1.00;;;;;;4904680;28;20483;-80
2021/03/12 11:22:48;;;;;;;5.80;3.97;;;12.90;1.00;;;;;;4916596;28;22027;-77
2021/03/12 11:25:16;;;;;;;17.30;6.00;;;12.60;1.00;;;;;;4906556;28;20608;-79
2021/03/12 11:27:44;;;;;;;4.37;3.30;;;12.30;1.00;;;;;;4913433;28;20423;-78
2021/03/12 11:30:13;;;;;;;7.20;3.57;;;11.80;1.00;;;;;;4906818;28;20456;-79
2021/03/12 11:32:40;;;;;;;5.20;3.90;;;11.30;1.00;;;;;;4916752;29;20430;-78
2021/03/12 11:35:08;;;;;;;5.00;3.73;;;10.90;1.00;;;;;;4903261;28;20391;-83
2021/03/12 11:37:35;;;;;;;4.57;4.07;;;11.70;1.00;;;;;;4914719;29;20474;-78
2021/03/12 11:40:02;;;;;;;6.77;3.60;;;12.60;1.00;;;;;;4887339;28;20466;-77
2021/03/12 11:42:28;;;;;;;6.63;4.10;;;12.60;1.00;;;;;;4911791;28;20476;-79
2021/03/12 11:44:54;;;;;;;6.43;3.70;;;13.60;1.00;;;;;;4901085;29;20968;-77
2021/03/12 11:47:21;;;;;;;3.80;3.50;;;15.30;1.00;;;;;;4907210;28;20519;-77
2021/03/12 11:49:48;;;;;;;5.30;3.83;;;14.60;1.00;;;;;;4920944;29;20478;-78
2021/03/12 11:52:15;;;;;;;7.43;4.40;;;13.30;1.00;;;;;;4909006;28;20485;-77
2021/03/12 11:54:42;;;;;;;10.15;4.43;;;12.30;1.00;;;;;;4923877;28;20466;-77
2021/03/12 11:57:08;;;;;;;4.33;3.83;;;11.80;1.00;;;;;;4899150;29;20230;-77
2021/03/12 11:59:35;;;;;;;8.27;4.83;;;11.20;1.00;;;;;;4939140;28;20470;-77
2021/03/12 12:02:03;;;;;;;6.82;5.45;;;10.90;1.00;;;;;;4913505;28;20464;-78
2021/03/12 12:04:29;;;;;;;4.13;3.72;;;10.60;1.00;;;;;;4922981;29;20329;-79
2021/03/12 12:06:58;;;;;;;5.07;4.53;;;10.30;1.00;;;;;;4909466;28;20222;-77
2021/03/12 12:09:24;;;;;;;6.05;4.63;;;10.70;1.00;;;;;;4911062;29;20227;-78
2021/03/12 12:11:52;;;;;;;5.30;4.10;;;11.10;1.00;;;;;;4905226;28;20231;-77
2021/03/12 12:14:21;;;;;;;6.90;4.60;;;11.50;1.00;;;;;;4913808;29;20294;-77
2021/03/12 12:16:47;;;;;;;7.10;5.10;;;11.60;1.00;;;;;;4900112;28;20447;-79
2021/03/12 12:19:14;;;;;;;5.10;4.47;;;13.20;1.00;;;;;;4918196;29;20474;-76
2021/03/12 12:21:41;;;;;;;8.40;5.30;;;14.10;1.00;;;;;;4906207;29;20510;-77
2021/03/12 12:24:08;;;;;;;6.07;4.90;;;14.20;1.00;;;;;;4908784;28;20440;-77
2021/03/12 12:26:34;;;;;;;7.47;4.53;;;15.00;1.00;;;;;;4916260;28;20502;-78
2021/03/12 12:29:03;;;;;;;4.70;4.23;;;16.00;1.00;;;;;;4905131;28;20449;-77
2021/03/12 12:31:30;;;;;;;6.80;4.50;;;16.00;1.00;;;;;;4913280;29;20438;-77
2021/03/12 12:33:56;;;;;;;7.33;4.60;;;16.00;1.00;;;;;;4896045;28;20468;-77
2021/03/12 12:36:23;;;;;;;5.67;3.77;;;15.70;1.00;;;;;;4910808;29;20769;-78
2021/03/12 12:38:49;;;;;;;5.93;3.63;;;16.10;1.00;;;;;;4900256;28;20438;-77
2021/03/12 12:41:16;;;;;;;3.97;3.53;;;16.20;1.00;;;;;;4910796;28;20581;-78
2021/03/12 12:43:42;;;;;;;4.53;2.63;;;16.50;1.00;;;;;;4903097;28;20466;-78
2021/03/12 12:46:09;;;;;;;8.10;3.07;;;17.30;1.00;;;;;;4915989;28;21006;-77
2021/03/12 12:48:36;;;;;;;6.17;3.60;;;18.10;1.00;;;;;;4906343;28;21313;-75
2021/03/12 12:51:02;;;;;;;6.20;2.97;;;18.00;1.00;;;;;;4913738;29;20468;-77
2021/03/12 12:53:29;;;;;;;4.07;3.17;;;17.10;1.00;;;;;;4903533;28;20562;-77
2021/03/12 12:55:55;;;;;;;3.70;3.10;;;16.50;1.00;;;;;;4916601;29;22383;-76
2021/03/12 12:58:21;;;;;;;5.90;3.63;;;15.60;1.00;;;;;;4898965;28;20541;-75
2021/03/12 13:00:47;;;;;;;4.27;3.87;;;14.70;1.00;;;;;;4894654;29;20459;-76
2021/03/12 13:03:14;;;;;;;5.70;3.30;;;14.70;1.00;;;;;;4904701;28;20426;-77
2021/03/12 13:05:41;;;;;;;5.27;3.80;;;14.60;1.00;;;;;;4910624;28;21935;-77
2021/03/12 13:08:07;;;;;;;4.20;2.87;;;14.70;1.00;;;;;;4917356;29;20504;-77
2021/03/12 13:10:34;;;;;;;4.17;3.30;;;14.60;1.00;;;;;;4900776;28;20538;-77
2021/03/12 13:13:01;;;;;;;5.17;3.00;;;15.00;1.00;;;;;;4920329;29;20445;-78